Shaw, Missouri
Current Conditions -  °F | °C
As of 12:54 AM on Thursday 23 Oct 2014 (Local Time) from KCOU Reporting Station
Clear Clear  
Wind Chill:   Ceiling: Unl
Heat Index:   Visibility: 10mi
Dew Point:   Wind: 8mph
Humidity: 74%   Direction: 120°ESE
Pressure: 30.17"   Gusts: NA
Location:  39.0235°N, 92.2896°W
Report Text: KCOU 230554Z AUTO 12007KT 10SM CLR 09/05 A3017 RMK AO2 SLP217 T00940050 10144 20089 401890056 58007
Loading
Personal Weather Stations






























Interactive Weather Map
Tropical Storm Tracking
New forecast layout! Learn more

10-Day Weather Forecast

Advertisements
Track Severe Weather on mobile